Latest Coastal Weather Observations for Wilsons Promontory

IDV60701

Issued at 4:51 pm EST Tuesday 3 May 2016 (issued every 10 minutes, with the page automatically refreshed every 10 minutes)

About coastal observations | Map of coastal stations | Coastal observations for VIC | Marine services | Other Formats
Station Details ID: 085096 Name: WILSONS PROMONTORY LIGHTHOUSE Lat: -39.13 Lon: 146.42 Height: 95.0 m
Data from the previous 72 hours. | See also: Recent months at Wilsons Promontory
Date/Time
EST
Temp

°C
Wind Pressure Rain
since 9am
mm
Weather Cloud Vis
km
Sea
Height
m
Swell
Dir
 
Speed
knots
Gust
knots
hPa Trend Height
m
Period
s
Dir
03/04:30pm 12.7 W 34 50 996.4 - 7.0 - - - - - - -
03/04:00pm 12.8 W 28 45 996.1 - 5.0 - - - - - - -
03/03:59pm 12.9 W 29 45 996.0 - 4.8 - - - - - - -
03/03:40pm 14.3 W 33 66 994.0 - 2.0 - - - - - - -
03/03:30pm 15.5 W 34 55 994.2 - 0.4 - - - - - - -
03/03:25pm 16.5 W 40 55 993.6 - 0.0 - - - - - - -
03/03:21pm 17.5 WNW 25 49 993.6 - 0.0 - - - - - - -
03/03:05pm 18.2 WNW 17 34 993.5 - 0.0 - - - - - - -
03/03:00pm 18.4 WNW 13 34 993.6 - 0.0 - - - - - - -
03/02:30pm 18.6 N 16 35 993.0 - 0.0 - - - - - - -
03/02:19pm 18.7 W 16 35 993.3 - 0.0 - - - - - - -
03/02:00pm 18.6 NW 11 37 993.5 - 0.0 - - - - - - -
03/01:32pm 18.4 NW 15 39 993.8 - 0.0 - - - - - - -
03/01:30pm 18.3 NW 12 37 994.0 - 0.0 - - - - - - -
03/01:21pm 18.2 NW 14 37 994.0 - 0.0 - - - - - - -
03/01:14pm 18.1 WSW 15 25 994.0 - 0.0 - - - - - - -
03/01:00pm 18.4 W 9 24 994.5 - 0.0 - - - - - - -
03/12:45pm 18.6 WNW 15 42 994.6 - 0.0 - - - - - - -
03/12:37pm 18.5 W 8 48 994.8 - 0.0 - - - - - - -
03/12:34pm 18.4 NW 29 48 993.9 - 0.0 - - - - - - -
03/12:30pm 18.5 W 10 18 995.0 - 0.0 - - - - - - -
03/12:01pm 18.7 NNW 15 31 994.8 - 0.0 - - - - - - -
03/12:00pm 18.7 NNW 14 31 994.9 - 0.0 - - - - - - -
03/11:30am 18.4 NNW 17 41 995.7 - 0.0 - - - - - - -
03/11:00am 18.5 NNW 17 40 996.0 - 0.0 - - - - - - -
03/10:30am 18.5 NNW 25 49 995.9 - 0.0 - - - - - - -
03/10:00am 18.2 NNW 28 51 995.6 - 0.0 - - - - - - -
03/09:56am 18.2 NNW 30 52 995.7 - 0.0 - - - - - - -
03/09:30am 17.9 NNW 19 45 996.6 - 0.0 - - - - - - -
03/09:00am 17.8 NNW 22 41 996.5 - 0.0 - - - - - - -
03/08:30am 17.4 NNW 21 46 996.7 - 0.0 - - - - - - -
03/08:00am 17.3 NNW 23 49 997.4 - 0.0 - - - - - - -
03/07:30am 16.9 NNW 25 52 997.1 - 0.0 - - - - - - -
03/07:00am 17.0 NNW 21 45 997.4 - 0.0 - - - - - - -
03/06:35am 17.1 NNW 21 49 997.5 - 0.0 - - - - - - -
03/06:33am 17.2 NNW 33 49 996.8 - 0.0 - - - - - - -
03/06:30am 16.9 NNW 21 45 997.7 - 0.0 - - - - - - -
03/06:00am 16.7 NNW 22 47 998.2 - 0.0 - - - - - - -
03/05:30am 16.5 NNW 20 39 998.4 - 0.0 - - - - - - -
03/05:02am 16.4 NNW 22 50 998.6 - 0.0 - - - - - - -
03/05:00am 16.3 NNW 21 40 999.1 - 0.0 - - - - - - -
03/04:30am 16.4 NNW 28 45 998.9 - 0.0 - - - - - - -
03/04:00am 16.5 NNW 26 51 999.8 - 0.0 - - - - - - -
03/03:30am 16.7 NNW 22 48 999.8 - 0.0 - - - - - - -
03/03:00am 16.8 NNW 20 45 1000.2 - 0.0 - - - - - - -
03/02:30am 16.7 NNW 17 37 1001.0 - 0.0 - - - - - - -
03/02:00am 16.5 NNW 21 36 1001.1 - 0.0 - - - - - - -
03/01:30am 16.2 NNW 18 36 1001.8 - 0.0 - - - - - - -
03/01:00am 15.9 NNW 15 35 1002.5 - 0.0 - - - - - - -
03/12:30am 16.1 N 18 37 1002.7 - 0.0 - - - - - - -
03/12:00am 15.9 N 21 39 1003.1 - 0.0 - - - - - - -
 
Date/Time
EST
Temp

°C
Wind Pressure Rain
since 9am
mm
Weather Cloud Vis
km
Sea
Height
m
Swell
Dir
 
Speed
knots
Gust
knots
hPa Trend Height
m
Period
s
Dir
02/11:30pm 15.8 NNW 18 38 1003.3 - 0.0 - - - - - - -
02/11:00pm 15.7 NNW 19 40 1004.2 - 0.0 - - - - - - -
02/10:46pm 15.7 N 20 47 1003.6 - 0.0 - - - - - - -
02/10:30pm 15.6 NNW 19 36 1004.5 - 0.0 - - - - - - -
02/10:00pm 15.4 NNW 19 32 1004.8 - 0.0 - - - - - - -
02/09:30pm 15.2 NNW 21 40 1005.1 - 0.0 - - - - - - -
02/09:00pm 15.1 N 19 38 1005.6 - 0.0 - - - - - - -
02/08:30pm 14.8 N 15 34 1005.8 - 0.0 - - - - - - -
02/08:00pm 14.8 N 17 36 1006.2 - 0.0 - - - - - - -
02/07:38pm 14.8 N 18 48 1005.7 - 0.0 - - - - - - -
02/07:30pm 14.6 N 15 31 1006.2 - 0.0 - - - - - - -
02/07:00pm 14.7 N 17 35 1006.3 - 0.0 - - - - - - -
02/06:30pm 14.6 NNW 15 34 1006.7 - 0.0 - - - - - - -
02/06:00pm 14.8 N 15 27 1006.3 - 0.0 - - - - - - -
02/05:30pm 15.0 NNW 17 33 1006.4 - 0.0 - - - - - - -
02/05:00pm 15.1 NNW 15 31 1006.5 - 0.0 - - - - - - -
02/04:55pm 15.1 NNW 15 38 1006.4 - 0.0 - - - - - - -
02/04:30pm 15.3 NW 10 28 1006.6 - 0.0 - - - - - - -
02/04:00pm 15.3 NNW 10 30 1006.9 - 0.0 - - - - - - -
02/03:30pm 15.7 NNW 12 23 1007.2 - 0.0 - - - - - - -
02/03:13pm 15.9 NW 16 29 1007.0 - 0.0 - - - - - - -
02/03:00pm 15.9 NW 8 27 1007.3 - 0.0 - - - - - - -
02/02:30pm 15.8 NNW 11 21 1007.4 - 0.0 - - - - - - -
02/02:00pm 15.7 N 10 21 1007.3 - 0.0 - - - - - - -
02/01:30pm 15.5 NNW 13 26 1007.6 - 0.0 - - - - - - -
02/01:00pm 15.2 NNW 11 20 1008.1 - 0.0 - - - - - - -
02/12:30pm 15.0 NNW 6 16 1008.8 - 0.0 - - - - - - -
02/12:00pm 14.4 NW 9 24 1009.2 - 0.0 - - - - - - -
02/11:30am 13.9 N 12 29 1009.8 - 0.0 - - - - - - -
02/11:28am 13.8 NW 17 29 1009.6 - 0.0 - - - - - - -
02/11:00am 14.0 NNW 3 27 1010.1 - 0.0 - - - - - - -
02/10:30am 12.7 NNW 11 23 1010.3 - 0.0 - - - - - - -
02/10:00am 12.8 NNW 8 17 1010.6 - 0.0 - - - - - - -
02/09:30am 12.1 NNW 11 29 1010.8 - 0.0 - - - - - - -
02/09:00am 11.9 NNW 12 26 1010.8 - 28.4 - - - - - - -
02/08:30am 11.3 NNW 13 26 1010.8 - 28.4 - - - - - - -
02/08:00am 11.0 N 12 22 1010.9 - 28.4 - - - - - - -
02/07:30am 11.0 NNW 12 25 1010.7 - 28.4 - - - - - - -
02/07:00am 11.0 NNW 9 17 1010.5 - 28.4 - - - - - - -
02/06:30am 11.1 NNW 7 15 1010.5 - 28.4 - - - - - - -
02/06:00am 11.2 NNW 7 14 1010.3 - 28.4 - - - - - - -
02/05:30am 11.9 N 6 21 1010.4 - 28.4 - - - - - - -
02/05:00am 12.8 W 18 29 1010.0 - 28.4 - - - - - - -
02/04:30am 12.6 W 20 46 1009.6 - 28.4 - - - - - - -
02/04:00am 12.7 W 22 34 1009.5 - 28.4 - - - - - - -
02/03:30am 12.7 W 20 36 1009.9 - 28.4 - - - - - - -
02/03:00am 12.6 W 23 37 1009.7 - 28.4 - - - - - - -
02/02:30am 12.3 W 20 34 1010.0 - 28.4 - - - - - - -
02/02:00am 11.6 W 26 41 1009.9 - 28.4 - - - - - - -
02/01:30am 11.2 W 32 50 1009.5 - 27.4 - - - - - - -
02/01:23am 12.3 W 26 50 1009.5 - 26.4 - - - - - - -
02/01:00am 12.1 W 21 32 1010.1 - 26.2 - - - - - - -
02/12:30am 12.1 W 26 43 1010.2 - 25.2 - - - - - - -
02/12:01am 12.0 W 28 51 1009.4 - 24.0 - - - - - - -
02/12:00am 12.9 W 26 39 1010.1 - 23.2 - - - - - - -
 
Date/Time
EST
Temp

°C
Wind Pressure Rain
since 9am
mm
Weather Cloud Vis
km
Sea
Height
m
Swell
Dir
 
Speed
knots
Gust
knots
hPa Trend Height
m
Period
s
Dir
01/11:30pm 13.1 W 28 40 1010.2 - 22.6 - - - - - - -
01/11:00pm 13.1 W 27 39 1010.2 - 22.6 - - - - - - -
01/10:30pm 12.1 W 27 45 1010.6 - 22.6 - - - - - - -
01/10:22pm 11.9 W 34 45 1009.9 - 22.6 - - - - - - -
01/10:21pm 11.9 W 36 45 1009.7 - 22.6 - - - - - - -
01/10:02pm 13.1 W 24 34 1010.2 - 22.4 - - - - - - -
01/10:00pm 13.0 W 25 34 1010.2 - 22.4 - - - - - - -
01/09:30pm 12.6 W 24 37 1010.3 - 22.4 - - - - - - -
01/09:00pm 13.2 W 28 41 1009.7 - 22.4 - - - - - - -
01/08:30pm 13.4 W 29 41 1008.9 - 22.4 - - - - - - -
01/08:00pm 13.2 W 28 45 1009.1 - 22.4 - - - - - - -
01/07:30pm 12.7 W 27 41 1008.8 - 22.4 - - - - - - -
01/07:00pm 13.3 W 29 42 1008.3 - 22.4 - - - - - - -
01/06:30pm 13.3 W 31 43 1008.0 - 22.4 - - - - - - -
01/06:21pm 13.1 W 35 45 1007.9 - 22.4 - - - - - - -
01/06:14pm 12.9 W 38 44 1007.2 - 22.4 - - - - - - -
01/06:00pm 13.0 W 26 40 1007.6 - 22.4 - - - - - - -
01/05:30pm 13.1 W 31 44 1006.8 - 22.4 - - - - - - -
01/05:00pm 13.2 W 29 44 1006.0 - 22.4 - - - - - - -
01/04:30pm 13.2 W 31 44 1005.5 - 22.0 - - - - - - -
01/04:00pm 13.0 W 28 42 1005.3 - 22.0 - - - - - - -
01/03:30pm 12.3 W 34 53 1004.6 - 22.0 - - - - - - -
01/03:06pm 11.8 W 29 52 1003.7 - 22.0 - - - - - - -
01/03:00pm 12.2 W 26 41 1004.3 - 17.6 - - - - - - -
01/02:55pm 12.6 W 21 41 1004.3 - 15.2 - - - - - - -
01/02:30pm 12.7 W 33 53 1003.5 - 15.2 - - - - - - -
01/02:14pm 11.4 W 35 61 1003.4 - 15.2 - - - - - - -
01/02:06pm 11.3 W 46 61 1002.6 - 15.0 - - - - - - -
01/02:05pm 11.9 W 28 61 1002.7 - 14.8 - - - - - - -
01/02:00pm 12.6 W 25 41 1002.9 - 14.6 - - - - - - -
01/01:30pm 11.9 W 25 39 1003.0 - 14.6 - - - - - - -
01/01:05pm 12.1 W 22 47 1003.1 - 14.6 - - - - - - -
01/01:00pm 12.0 W 35 51 1002.8 - 14.6 - - - - - - -
01/12:49pm 12.0 W 35 59 1002.5 - 14.4 - - - - - - -
01/12:46pm 11.5 W 45 59 1001.7 - 14.4 - - - - - - -
01/12:30pm 11.4 W 32 50 1002.9 - 13.0 - - - - - - -
01/12:21pm 12.0 W 35 52 1002.1 - 12.6 - - - - - - -
01/12:00pm 13.0 W 25 42 1002.1 - 9.6 - - - - - - -
01/11:58am 13.0 W 25 36 1002.0 - 9.6 - - - - - - -
01/11:34am 11.8 WNW 15 29 1003.0 - 9.6 - - - - - - -
01/11:30am 11.8 WNW 14 29 1002.8 - 9.6 - - - - - - -
01/11:16am 11.5 WNW 24 43 1002.1 - 9.4 - - - - - - -
01/11:14am 11.5 W 21 43 1002.6 - 9.2 - - - - - - -
01/11:00am 11.4 W 34 50 1002.4 - 8.6 - - - - - - -
01/10:48am 12.1 W 39 52 1001.3 - 4.4 - - - - - - -
01/10:30am 13.7 WNW 26 52 1000.6 - 3.0 - - - - - - -
01/10:19am 13.9 WNW 30 45 1001.3 - 2.8 - - - - - - -
01/10:00am 13.0 WNW 15 41 1002.0 - 2.8 - - - - - - -
01/09:54am 13.2 WNW 15 41 1001.8 - 2.8 - - - - - - -
01/09:30am 14.3 NNW 7 27 1001.9 - 0.4 - - - - - - -
01/09:00am 16.2 NNW 12 38 1001.1 - 5.6 - - - - - - -
01/08:30am 16.5 NNW 16 32 1001.2 - 5.6 - - - - - - -
01/08:11am 16.4 NW 15 27 1001.1 - 5.6 - - - - - - -
01/08:00am 16.1 NNW 13 29 1001.2 - 5.6 - - - - - - -
01/07:30am 15.7 NNW 8 18 1001.3 - 5.6 - - - - - - -
01/07:00am 15.3 NNW 12 23 1001.4 - 5.6 - - - - - - -
01/06:30am 15.2 N 10 16 1001.0 - 5.6 - - - - - - -
01/06:00am 14.9 NNW 13 26 1001.9 - 5.6 - - - - - - -
01/05:51am 14.9 NNW 15 26 1001.8 - 5.6 - - - - - - -
01/05:30am 14.7 WNW 11 23 1002.7 - 5.0 - - - - - - -
01/05:00am 16.6 W 19 37 1003.2 - 0.8 - - - - - - -
01/04:59am 16.9 WNW 20 37 1003.1 - 0.6 - - - - - - -
01/04:57am 17.8 NNW 15 24 1002.7 - 0.2 - - - - - - -
01/04:30am 18.0 NNE 13 18 1000.6 - 0.0 - - - - - - -
01/04:00am 18.1 NNE 13 17 1000.6 - 0.0 - - - - - - -
01/03:30am 18.5 NNE 17 24 1002.1 - 0.0 - - - - - - -
01/03:00am 16.5 NNE 13 17 1002.8 - 0.0 - - - - - - -
01/02:30am 17.3 NNE 12 15 1003.5 - 0.0 - - - - - - -
01/02:00am 18.9 NNE 11 18 1004.3 - 0.0 - - - - - - -
01/01:30am 18.9 NNE 13 17 1005.1 - 0.0 - - - - - - -
01/01:00am 19.3 N 13 18 1005.9 - 0.0 - - - - - - -
01/12:30am 19.4 N 14 18 1006.5 - 0.0 - - - - - - -
01/12:00am 18.6 NNE 12 16 1007.0 - 0.0 - - - - - - -
 
Date/Time
EST
Temp

°C
Wind Pressure Rain
since 9am
mm
Weather Cloud Vis
km
Sea
Height
m
Swell
Dir
 
Speed
knots
Gust
knots
hPa Trend Height
m
Period
s
Dir
30/11:30pm 18.7 NNE 10 13 1008.0 - 0.0 - - - - - - -
30/11:00pm 19.5 N 10 13 1008.6 - 0.0 - - - - - - -
30/10:30pm 20.0 N 9 13 1009.2 - 0.0 - - - - - - -
30/10:00pm 20.3 N 10 16 1009.8 - 0.0 - - - - - - -
30/09:30pm 18.7 N 7 10 1009.9 - 0.0 - - - - - - -
30/09:00pm 19.1 NNE 9 11 1009.8 - 0.0 - - - - - - -
30/08:30pm 18.2 NNE 9 11 1010.2 - 0.0 - - - - - - -
30/08:00pm 18.1 NNE 9 11 1010.1 - 0.0 - - - - - - -
30/07:30pm 17.8 NNE 11 14 1010.2 - 0.0 - - - - - - -
30/07:00pm 18.0 NE 10 12 1010.3 - 0.0 - - - - - - -
30/06:30pm 20.8 N 10 14 1010.2 - 0.0 - - - - - - -
30/06:00pm 21.0 N 8 11 1010.0 - 0.0 - - - - - - -
30/05:30pm 18.7 NNE 6 8 1010.2 - 0.0 - - - - - - -
30/05:00pm 19.2 NNE 6 8 1010.5 - 0.0 - - - - - - -

Other Formats:

Comma delimited format used in spreadsheet applications
http://www.bom.gov.au/fwo/IDV60701/IDV60701.94893.axf

JavaScript Object Notation format (JSON) in row-major order
http://www.bom.gov.au/fwo/IDV60701/IDV60701.94893.json